createdAt,value
2019-02-14T00:01:47.401Z,9.16
2019-02-14T00:04:16.807Z,9.02
2019-02-14T00:06:46.197Z,8.90
2019-02-14T00:09:15.501Z,9.02
2019-02-14T00:11:44.897Z,9.10
2019-02-14T00:14:14.311Z,9.14
2019-02-14T00:16:43.729Z,8.56
2019-02-14T00:19:13.067Z,8.52
2019-02-14T00:21:42.378Z,8.48
2019-02-14T00:24:11.660Z,8.41
2019-02-14T00:26:40.942Z,8.81
2019-02-14T00:29:10.260Z,9.15
2019-02-14T00:31:39.648Z,9.12
2019-02-14T00:34:09.846Z,9.05
2019-02-14T00:36:39.125Z,9.02
2019-02-14T00:39:10.574Z,9.08
2019-02-14T00:41:39.855Z,9.03
2019-02-14T00:44:09.144Z,8.75
2019-02-14T00:46:38.422Z,8.67
2019-02-14T00:49:07.756Z,8.86
2019-02-14T00:51:37.042Z,8.86
2019-02-14T00:54:06.365Z,8.82
2019-02-14T00:56:35.710Z,8.75
2019-02-14T00:59:05.039Z,8.57
2019-02-14T01:01:34.358Z,8.87
2019-02-14T01:04:03.633Z,8.81
2019-02-14T01:06:32.924Z,8.77
2019-02-14T01:09:02.289Z,8.63
2019-02-14T01:11:31.565Z,8.62
2019-02-14T01:14:00.881Z,8.79
2019-02-14T01:16:30.653Z,8.66
2019-02-14T01:18:59.945Z,8.62
2019-02-14T01:21:29.344Z,9.32
2019-02-14T01:23:58.733Z,9.23
2019-02-14T01:26:28.032Z,10.19
2019-02-14T01:28:57.425Z,9.60
2019-02-14T01:31:26.699Z,8.63
2019-02-14T01:33:55.993Z,8.82
2019-02-14T01:36:25.295Z,8.73
2019-02-14T01:38:54.625Z,8.86
2019-02-14T01:41:23.879Z,8.55
2019-02-14T01:43:53.157Z,8.57
2019-02-14T01:46:22.457Z,8.48
2019-02-14T01:48:51.718Z,8.43
2019-02-14T01:51:21.015Z,8.12
2019-02-14T01:53:50.287Z,8.32
2019-02-14T01:56:19.571Z,8.24
2019-02-14T01:58:48.852Z,8.35
2019-02-14T02:01:18.153Z,8.29
2019-02-14T02:03:47.463Z,8.15
2019-02-14T02:06:16.767Z,8.23
2019-02-14T02:08:46.028Z,8.08
2019-02-14T02:11:15.358Z,8.08
2019-02-14T02:13:44.643Z,8.00
2019-02-14T02:16:13.982Z,8.00
2019-02-14T02:18:43.332Z,8.28
2019-02-14T02:21:12.614Z,8.25
2019-02-14T02:23:41.984Z,8.26
2019-02-14T02:26:11.281Z,8.25
2019-02-14T02:28:40.567Z,7.86
2019-02-14T02:31:09.882Z,8.00
2019-02-14T02:33:39.187Z,8.11
2019-02-14T02:36:08.451Z,7.84
2019-02-14T02:38:37.752Z,7.38
2019-02-14T02:41:06.996Z,8.24
2019-02-14T02:43:36.295Z,7.99
2019-02-14T02:46:05.563Z,8.37
2019-02-14T02:48:34.858Z,8.21
2019-02-14T02:51:04.239Z,8.18
2019-02-14T02:53:33.520Z,7.85
2019-02-14T02:56:02.781Z,7.73
2019-02-14T02:58:32.073Z,7.62
2019-02-14T03:01:01.454Z,8.00
2019-02-14T03:03:30.735Z,7.91
2019-02-14T03:06:00.019Z,7.74
2019-02-14T03:08:29.368Z,7.78
2019-02-14T03:10:58.699Z,7.71
2019-02-14T03:13:28.021Z,7.37
2019-02-14T03:15:57.295Z,7.07
2019-02-14T03:18:26.641Z,7.56
2019-02-14T03:20:55.895Z,7.42
2019-02-14T03:23:25.174Z,7.08
2019-02-14T03:25:54.467Z,7.33
2019-02-14T03:28:23.786Z,7.29
2019-02-14T03:30:53.049Z,7.37
2019-02-14T03:33:22.384Z,7.32
2019-02-14T03:35:51.658Z,7.25
2019-02-14T03:38:20.991Z,7.23
2019-02-14T03:40:50.280Z,7.31
2019-02-14T03:43:19.545Z,7.36
2019-02-14T03:45:48.896Z,7.44
2019-02-14T03:48:18.171Z,7.54
2019-02-14T03:50:47.477Z,7.45
2019-02-14T03:53:16.756Z,7.37
2019-02-14T03:55:46.161Z,7.41
2019-02-14T03:58:15.470Z,7.38
2019-02-14T04:00:44.755Z,7.44
2019-02-14T04:03:14.070Z,7.51
2019-02-14T04:05:43.434Z,8.03
2019-02-14T04:08:12.701Z,8.42
2019-02-14T04:14:35.208Z,7.05
2019-02-14T04:17:04.552Z,7.06
2019-02-14T04:19:33.879Z,7.02
2019-02-14T04:22:33.470Z,6.90
2019-02-14T04:25:02.820Z,7.05
2019-02-14T04:27:32.139Z,7.03
2019-02-14T04:30:01.434Z,6.90
2019-02-14T04:32:30.748Z,7.00
2019-02-14T04:35:00.362Z,6.98
2019-02-14T04:37:29.758Z,7.05
2019-02-14T04:39:59.114Z,7.08
2019-02-14T04:42:28.454Z,7.16
2019-02-14T04:44:57.767Z,7.22
2019-02-14T04:47:27.085Z,7.20
2019-02-14T04:49:56.382Z,7.31
2019-02-14T04:52:25.715Z,6.68
2019-02-14T04:54:55.110Z,7.22
2019-02-14T04:57:24.544Z,7.17
2019-02-14T04:59:53.885Z,7.03
2019-02-14T05:02:23.191Z,7.00
2019-02-14T05:04:52.476Z,6.79
2019-02-14T05:07:21.805Z,7.06
2019-02-14T05:09:51.104Z,6.86
2019-02-14T05:12:20.356Z,6.80
2019-02-14T05:14:49.646Z,6.83
2019-02-14T05:17:18.905Z,6.55
2019-02-14T05:19:48.172Z,6.28
2019-02-14T05:22:17.436Z,6.48
2019-02-14T05:24:46.770Z,6.47
2019-02-14T05:27:16.071Z,6.23
2019-02-14T05:29:45.357Z,6.41
2019-02-14T05:32:14.626Z,6.54
2019-02-14T05:34:43.947Z,6.27
2019-02-14T05:37:13.212Z,6.47
2019-02-14T05:39:42.504Z,6.60
2019-02-14T05:42:11.796Z,6.52
2019-02-14T05:44:41.098Z,6.37
2019-02-14T05:47:10.389Z,6.07
2019-02-14T05:49:39.698Z,6.18
2019-02-14T05:52:08.951Z,6.35
2019-02-14T05:54:38.231Z,6.48
2019-02-14T05:57:07.508Z,6.37
2019-02-14T05:59:41.366Z,6.53
2019-02-14T06:02:10.668Z,6.56
2019-02-14T06:04:39.950Z,6.23
2019-02-14T06:07:09.209Z,6.04
2019-02-14T06:09:38.560Z,6.20
2019-02-14T06:12:07.815Z,6.07
2019-02-14T06:14:37.081Z,6.18
2019-02-14T06:17:06.357Z,6.05
2019-02-14T06:19:35.615Z,5.68
2019-02-14T06:22:04.946Z,5.78
2019-02-14T06:24:34.227Z,5.73
2019-02-14T06:27:03.512Z,5.70
2019-02-14T06:29:32.801Z,5.57
2019-02-14T06:32:02.136Z,5.78
2019-02-14T06:34:31.428Z,5.95
2019-02-14T06:37:08.038Z,5.86
2019-02-14T06:39:31.824Z,5.83
2019-02-14T06:42:01.114Z,5.66
2019-02-14T06:44:30.368Z,5.21
2019-02-14T06:46:59.698Z,5.20
2019-02-14T06:49:29.013Z,5.52
2019-02-14T06:51:58.309Z,5.74
2019-02-14T06:54:27.589Z,5.88
2019-02-14T06:56:57.010Z,5.84
2019-02-14T06:59:26.291Z,5.85
2019-02-14T07:01:55.589Z,5.90
2019-02-14T07:04:24.868Z,6.03
2019-02-14T07:06:54.260Z,6.10
2019-02-14T07:09:25.656Z,5.93
2019-02-14T07:11:54.980Z,5.90
2019-02-14T07:14:24.249Z,5.74
2019-02-14T07:16:53.602Z,5.96
2019-02-14T07:19:22.911Z,6.06
2019-02-14T07:21:52.216Z,6.27
2019-02-14T07:24:21.476Z,6.33
2019-02-14T07:26:50.766Z,6.25
2019-02-14T07:29:20.099Z,6.61
2019-02-14T07:31:49.404Z,6.65
2019-02-14T07:34:18.676Z,6.57
2019-02-14T07:36:47.954Z,6.77
2019-02-14T07:39:17.279Z,6.90
2019-02-14T07:41:46.566Z,7.01
2019-02-14T07:44:15.875Z,7.14
2019-02-14T07:46:45.241Z,7.38
2019-02-14T07:49:14.525Z,7.25
2019-02-14T07:51:43.821Z,7.52
2019-02-14T07:54:13.183Z,7.52
2019-02-14T07:56:42.439Z,7.29
2019-02-14T07:59:11.778Z,7.43
2019-02-14T08:01:41.028Z,7.27
2019-02-14T08:04:10.329Z,7.22
2019-02-14T08:06:39.613Z,7.32
2019-02-14T08:09:08.975Z,7.59
2019-02-14T08:11:38.226Z,7.77
2019-02-14T08:14:07.518Z,7.88
2019-02-14T08:16:36.794Z,8.20
2019-02-14T08:19:06.091Z,8.35
2019-02-14T08:21:35.392Z,8.38
2019-02-14T08:24:04.668Z,8.10
2019-02-14T08:26:33.988Z,8.32
2019-02-14T08:29:33.387Z,8.33
2019-02-14T08:32:32.678Z,8.40
2019-02-14T08:35:32.160Z,8.48
2019-02-14T08:38:31.652Z,8.76
2019-02-14T08:41:31.087Z,8.48
2019-02-14T08:44:00.351Z,8.73
2019-02-14T08:46:32.399Z,9.08
2019-02-14T08:49:01.651Z,9.13
2019-02-14T08:51:33.794Z,9.34
2019-02-14T09:00:31.246Z,9.76
2019-02-14T09:05:47.789Z,9.56
2019-02-14T09:08:32.403Z,9.88
2019-02-14T09:11:01.661Z,9.59
2019-02-14T09:13:34.002Z,9.94
2019-02-14T09:16:30.475Z,10.15
2019-02-14T09:19:32.932Z,10.23
2019-02-14T09:22:32.367Z,10.37
2019-02-14T09:27:48.692Z,10.42
2019-02-14T09:30:30.106Z,10.19
2019-02-14T09:32:59.428Z,10.30
2019-02-14T09:35:28.703Z,10.37
2019-02-14T09:38:03.267Z,10.38
2019-02-14T09:40:29.025Z,10.27
2019-02-14T09:42:58.326Z,10.55
2019-02-14T09:45:27.635Z,10.69
2019-02-14T09:47:56.940Z,10.80
2019-02-14T09:50:26.258Z,10.84
2019-02-14T09:52:55.528Z,10.89
2019-02-14T09:55:24.816Z,11.45
2019-02-14T09:57:54.139Z,11.73
2019-02-14T10:00:23.420Z,11.66
2019-02-14T10:02:52.724Z,11.70
2019-02-14T10:05:22.045Z,11.85
2019-02-14T10:07:51.309Z,11.92
2019-02-14T10:10:20.664Z,12.19
2019-02-14T10:12:50.043Z,12.10
2019-02-14T10:15:19.383Z,12.86
2019-02-14T10:17:48.700Z,12.50
2019-02-14T10:20:17.980Z,12.52
2019-02-14T10:22:47.315Z,12.99
2019-02-14T10:25:16.618Z,12.97
2019-02-14T10:27:45.930Z,12.71
2019-02-14T10:30:18.815Z,12.80
2019-02-14T10:32:47.091Z,13.03
2019-02-14T10:35:16.374Z,13.45
2019-02-14T10:37:45.761Z,13.55
2019-02-14T10:40:15.619Z,13.53
2019-02-14T10:42:44.973Z,13.61
2019-02-14T10:45:16.413Z,13.80
2019-02-14T10:47:45.740Z,13.35
2019-02-14T10:50:15.030Z,13.73
2019-02-14T10:52:44.346Z,14.01
2019-02-14T10:55:13.730Z,14.26
2019-02-14T10:57:43.021Z,14.18
2019-02-14T11:00:19.152Z,14.05
2019-02-14T11:02:49.487Z,13.81
2019-02-14T11:05:19.011Z,14.14
2019-02-14T11:07:48.317Z,14.29
2019-02-14T11:10:17.663Z,14.31
2019-02-14T11:12:46.952Z,14.89
2019-02-14T11:15:17.636Z,14.79
2019-02-14T11:17:48.942Z,14.90
2019-02-14T11:20:18.292Z,14.42
2019-02-14T11:22:48.966Z,14.69
2019-02-14T11:25:24.578Z,14.86
2019-02-14T11:27:53.843Z,14.93
2019-02-14T11:30:23.162Z,15.01
2019-02-14T11:32:52.455Z,15.21
2019-02-14T11:35:21.750Z,14.54
2019-02-14T11:37:51.104Z,14.78
2019-02-14T11:40:48.390Z,14.65
2019-02-14T11:43:17.750Z,14.96
2019-02-14T11:45:47.170Z,15.31
2019-02-14T11:48:16.506Z,15.55
2019-02-14T11:50:56.396Z,15.08
2019-02-14T11:53:25.742Z,15.35
2019-02-14T11:55:55.047Z,15.36
2019-02-14T11:58:24.460Z,14.56
2019-02-14T12:00:53.766Z,14.81
2019-02-14T12:03:23.072Z,14.57
2019-02-14T12:05:52.397Z,14.72
2019-02-14T12:08:21.776Z,14.98
2019-02-14T12:10:51.153Z,14.90
2019-02-14T12:13:20.447Z,14.96
2019-02-14T12:15:49.831Z,14.94
2019-02-14T12:18:19.119Z,15.09
2019-02-14T12:20:48.493Z,14.87
2019-02-14T12:23:17.813Z,15.03
2019-02-14T12:25:47.115Z,15.31
2019-02-14T12:28:16.411Z,15.21
2019-02-14T12:30:45.713Z,15.15
2019-02-14T12:33:15.010Z,14.95
2019-02-14T12:35:44.339Z,15.14
2019-02-14T12:38:13.653Z,15.71
2019-02-14T12:40:42.937Z,15.72
2019-02-14T12:43:12.308Z,15.77
2019-02-14T12:45:41.603Z,15.73
2019-02-14T12:48:11.019Z,15.47
2019-02-14T12:50:40.315Z,15.43
2019-02-14T12:53:09.616Z,15.25
2019-02-14T12:55:38.893Z,15.51
2019-02-14T12:58:08.176Z,15.76
2019-02-14T13:00:37.468Z,15.81
2019-02-14T13:03:06.764Z,15.95
2019-02-14T13:05:36.041Z,15.72
2019-02-14T13:08:05.427Z,15.64
2019-02-14T13:10:34.754Z,15.74
2019-02-14T13:13:04.112Z,15.97
2019-02-14T13:15:33.410Z,16.21
2019-02-14T13:18:02.744Z,16.21
2019-02-14T13:20:32.036Z,16.18
2019-02-14T13:23:01.343Z,15.97
2019-02-14T13:25:30.596Z,15.82
2019-02-14T13:27:59.921Z,15.43
2019-02-14T13:30:29.261Z,15.37
2019-02-14T13:32:58.582Z,15.07
2019-02-14T13:35:27.947Z,15.08
2019-02-14T13:37:57.301Z,15.54
2019-02-14T13:40:26.583Z,15.32
2019-02-14T13:42:56.659Z,15.38
2019-02-14T13:45:25.920Z,15.65
2019-02-14T13:47:55.272Z,15.61
2019-02-14T13:50:24.549Z,15.30
2019-02-14T13:52:53.826Z,15.27
2019-02-14T13:55:23.162Z,15.41
2019-02-14T13:57:52.509Z,15.36
2019-02-14T14:00:25.392Z,15.57
2019-02-14T14:02:54.711Z,15.57
2019-02-14T14:05:24.084Z,15.52
2019-02-14T14:07:53.396Z,15.57
2019-02-14T14:10:22.733Z,15.74
2019-02-14T14:12:52.082Z,15.96
2019-02-14T14:15:21.426Z,15.72
2019-02-14T14:17:50.705Z,15.94
2019-02-14T14:20:20.205Z,15.91
2019-02-14T14:22:49.492Z,15.74
2019-02-14T14:25:18.783Z,15.72
2019-02-14T14:27:48.165Z,15.79
2019-02-14T14:30:17.503Z,15.70
2019-02-14T14:32:46.873Z,15.89
2019-02-14T14:35:16.251Z,16.07
2019-02-14T14:37:45.505Z,15.90
2019-02-14T14:40:14.935Z,16.00
2019-02-14T14:43:05.966Z,15.80
2019-02-14T14:46:00.832Z,15.86
2019-02-14T14:48:37.741Z,15.93
2019-02-14T14:51:07.078Z,16.13
2019-02-14T14:53:36.334Z,16.05
2019-02-14T14:56:05.696Z,16.03
2019-02-14T14:58:34.977Z,15.82
2019-02-14T15:01:04.521Z,15.78
2019-02-14T15:03:33.927Z,15.86
2019-02-14T15:06:03.242Z,15.80
2019-02-14T15:08:32.519Z,15.84
2019-02-14T15:11:01.935Z,15.83
2019-02-14T15:13:31.266Z,15.92
2019-02-14T15:16:00.558Z,15.95
2019-02-14T15:18:29.933Z,15.91
2019-02-14T15:20:59.228Z,15.76
2019-02-14T15:23:28.524Z,15.78
2019-02-14T15:25:57.814Z,15.62
2019-02-14T15:28:27.147Z,15.67
2019-02-14T15:30:56.506Z,15.72
2019-02-14T15:33:34.761Z,15.69
2019-02-14T15:36:04.171Z,15.59
2019-02-14T15:38:34.554Z,15.43
2019-02-14T15:41:04.582Z,15.37
2019-02-14T15:43:34.087Z,15.36
2019-02-14T15:46:03.592Z,15.38
2019-02-14T15:48:32.919Z,15.36
2019-02-14T15:51:02.196Z,15.57
2019-02-14T15:53:31.559Z,15.43
2019-02-14T15:56:01.016Z,15.43
2019-02-14T15:58:31.103Z,15.50
2019-02-14T16:01:01.533Z,15.26
2019-02-14T16:03:30.876Z,15.08
2019-02-14T16:06:01.724Z,15.24
2019-02-14T16:08:31.253Z,15.37
2019-02-14T16:11:00.588Z,15.10
2019-02-14T16:13:31.727Z,14.94
2019-02-14T16:16:00.964Z,14.84
2019-02-14T16:18:30.298Z,14.80
2019-02-14T16:20:59.585Z,14.65
2019-02-14T16:23:30.160Z,14.56
2019-02-14T16:25:59.920Z,14.42
2019-02-14T16:28:29.250Z,14.32
2019-02-14T16:30:58.606Z,14.10
2019-02-14T16:33:27.932Z,14.00
2019-02-14T16:35:57.299Z,13.93
2019-02-14T16:38:26.586Z,13.88
2019-02-14T16:40:55.900Z,13.88
2019-02-14T16:43:25.231Z,13.81
2019-02-14T16:45:54.576Z,13.65
2019-02-14T16:48:23.920Z,13.45
2019-02-14T16:50:53.331Z,13.39
2019-02-14T16:53:22.662Z,13.24
2019-02-14T16:55:52.063Z,12.98
2019-02-14T16:58:24.991Z,12.94
2019-02-14T17:01:35.025Z,12.84
2019-02-14T17:07:23.489Z,12.81
2019-02-14T17:09:52.849Z,12.65
2019-02-14T17:15:54.099Z,12.60
2019-02-14T17:18:23.534Z,12.31
2019-02-14T17:20:52.913Z,12.34
2019-02-14T17:23:22.251Z,12.30
2019-02-14T17:25:51.685Z,11.92
2019-02-14T17:28:21.067Z,11.80
2019-02-14T17:30:50.417Z,11.77
2019-02-14T17:33:19.791Z,11.64
2019-02-14T17:35:49.177Z,11.44
2019-02-14T17:38:18.587Z,11.50
2019-02-14T17:40:47.929Z,11.44
2019-02-14T17:43:17.341Z,11.30
2019-02-14T17:45:46.688Z,11.22
2019-02-14T17:48:16.153Z,11.14
2019-02-14T17:50:45.468Z,10.93
2019-02-14T17:53:14.787Z,11.09
2019-02-14T17:55:44.160Z,10.89
2019-02-14T17:58:13.545Z,10.90
2019-02-14T18:00:42.955Z,10.74
2019-02-14T18:03:12.312Z,10.64
2019-02-14T18:05:41.700Z,10.62
2019-02-14T18:08:11.158Z,10.51
2019-02-14T18:10:40.531Z,10.34
2019-02-14T18:13:09.870Z,10.16
2019-02-14T18:15:39.186Z,10.32
2019-02-14T18:18:08.662Z,10.12
2019-02-14T18:20:38.072Z,10.32
2019-02-14T18:23:07.401Z,10.28
2019-02-14T18:25:36.845Z,10.30
2019-02-14T18:28:06.290Z,10.22
2019-02-14T18:30:35.658Z,10.14
2019-02-14T18:33:05.151Z,10.16
2019-02-14T18:35:34.543Z,9.82
2019-02-14T18:38:03.972Z,9.80
2019-02-14T18:40:33.451Z,9.82
2019-02-14T18:43:02.965Z,9.65
2019-02-14T18:45:32.270Z,9.60
2019-02-14T18:48:01.564Z,9.49
2019-02-14T18:50:31.049Z,9.58
2019-02-14T18:53:00.444Z,9.76
2019-02-14T18:55:29.802Z,9.83
2019-02-14T18:57:59.106Z,9.91
2019-02-14T19:00:28.648Z,9.59
2019-02-14T19:02:58.031Z,9.12
2019-02-14T19:05:27.384Z,9.23
2019-02-14T19:07:56.752Z,9.24
2019-02-14T19:10:26.175Z,9.40
2019-02-14T19:12:55.569Z,9.53
2019-02-14T19:15:24.947Z,9.09
2019-02-14T19:17:54.268Z,8.79
2019-02-14T19:20:23.633Z,8.83
2019-02-14T19:22:52.933Z,8.88
2019-02-14T19:25:22.371Z,9.02
2019-02-14T19:27:51.660Z,8.89
2019-02-14T19:30:21.043Z,8.67
2019-02-14T19:32:50.430Z,8.76
2019-02-14T19:35:23.076Z,8.98
2019-02-14T19:37:50.871Z,8.62
2019-02-14T19:40:20.202Z,8.78
2019-02-14T19:42:49.525Z,8.43
2019-02-14T19:45:18.883Z,8.69
2019-02-14T19:47:48.352Z,8.64
2019-02-14T19:50:17.766Z,8.32
2019-02-14T19:52:48.676Z,8.34
2019-02-14T19:55:18.032Z,8.19
2019-02-14T19:57:47.623Z,8.08
2019-02-14T20:00:17.141Z,7.95
2019-02-14T20:02:46.589Z,8.07
2019-02-14T20:05:15.981Z,8.21
2019-02-14T20:07:45.442Z,8.08
2019-02-14T20:10:15.615Z,7.91
2019-02-14T20:12:45.126Z,7.98
2019-02-14T20:15:15.479Z,7.98
2019-02-14T20:17:44.927Z,7.84
2019-02-14T20:20:14.349Z,7.80
2019-02-14T20:22:43.694Z,7.88
2019-02-14T20:25:14.306Z,7.71
2019-02-14T20:27:43.656Z,7.80
2019-02-14T20:30:13.089Z,7.94
2019-02-14T20:32:42.434Z,7.64
2019-02-14T20:35:11.918Z,7.64
2019-02-14T20:37:41.290Z,7.59
2019-02-14T20:40:10.688Z,7.64
2019-02-14T20:42:40.062Z,7.56
2019-02-14T20:45:10.225Z,7.32
2019-02-14T20:47:39.551Z,7.18
2019-02-14T20:50:10.558Z,7.14
2019-02-14T20:52:39.932Z,7.08
2019-02-14T20:55:11.439Z,7.10
2019-02-14T20:57:40.815Z,7.13
2019-02-14T21:00:20.414Z,7.28
2019-02-14T21:02:49.732Z,7.26
2019-02-14T21:05:19.096Z,7.17
2019-02-14T21:07:48.463Z,7.20
2019-02-14T21:10:17.871Z,6.90
2019-02-14T21:12:47.259Z,6.69
2019-02-14T21:15:16.657Z,6.91
2019-02-14T21:17:45.995Z,6.89
2019-02-14T21:20:15.414Z,6.80
2019-02-14T21:22:44.899Z,6.82
2019-02-14T21:25:15.113Z,6.86
2019-02-14T21:27:44.433Z,6.80
2019-02-14T21:30:14.660Z,6.73
2019-02-14T21:32:44.131Z,6.68
2019-02-14T21:35:13.556Z,6.64
2019-02-14T21:37:43.000Z,6.51
2019-02-14T21:40:13.074Z,6.50
2019-02-14T21:42:42.425Z,6.64
2019-02-14T21:45:12.837Z,6.51
2019-02-14T21:47:42.189Z,6.41
2019-02-14T21:50:11.854Z,6.48
2019-02-14T21:52:41.221Z,6.34
2019-02-14T21:55:10.925Z,6.36
2019-02-14T21:58:40.978Z,6.51
2019-02-14T22:01:11.939Z,6.24
2019-02-14T22:03:41.290Z,6.21
2019-02-14T22:06:10.614Z,6.18
2019-02-14T22:08:40.061Z,6.35
2019-02-14T22:11:09.437Z,6.30
2019-02-14T22:13:38.750Z,6.45
2019-02-14T22:16:08.115Z,6.48
2019-02-14T22:18:37.466Z,6.11
2019-02-14T22:21:06.806Z,6.05
2019-02-14T22:23:36.691Z,6.20
2019-02-14T22:26:06.126Z,6.14
2019-02-14T22:28:35.500Z,6.07
2019-02-14T22:31:04.804Z,6.05
2019-02-14T22:33:34.173Z,6.05
2019-02-14T22:36:03.495Z,6.04
2019-02-14T22:38:32.812Z,6.05
2019-02-14T22:41:02.244Z,5.84
2019-02-14T22:43:31.538Z,5.83
2019-02-14T22:46:00.865Z,5.93
2019-02-14T22:48:30.163Z,5.92
2019-02-14T22:50:59.495Z,5.86
2019-02-14T22:53:28.832Z,6.06
2019-02-14T22:55:58.067Z,6.15
2019-02-14T22:58:27.422Z,6.03
2019-02-14T23:00:59.929Z,6.06
2019-02-14T23:03:29.228Z,6.07
2019-02-14T23:05:58.563Z,5.77
2019-02-14T23:08:27.881Z,5.81
2019-02-14T23:10:57.258Z,5.83
2019-02-14T23:13:26.590Z,5.60
2019-02-14T23:15:55.952Z,5.63
2019-02-14T23:18:26.031Z,5.73
2019-02-14T23:20:55.365Z,5.73
2019-02-14T23:23:24.704Z,5.68
2019-02-14T23:25:53.986Z,5.66
2019-02-14T23:28:23.259Z,5.72
2019-02-14T23:30:52.606Z,5.83
2019-02-14T23:33:21.916Z,5.66
2019-02-14T23:35:51.192Z,5.70
2019-02-14T23:38:20.495Z,5.76
2019-02-14T23:40:49.833Z,5.89
2019-02-14T23:43:19.140Z,5.76
2019-02-14T23:45:48.509Z,5.72
2019-02-14T23:48:17.831Z,5.71
2019-02-14T23:50:47.198Z,5.42
2019-02-14T23:53:16.477Z,5.60
2019-02-14T23:55:45.809Z,5.71
2019-02-14T23:58:15.084Z,5.70
